sensor_id;sensor_type;location;lat;lon;timestamp;pressure;altitude;pressure_sealevel;temperature;humidity
30516;BME280;17297;54.022;10.760;2023-07-20T00:02:13;101082.47;;;18.10;66.32
30516;BME280;17297;54.022;10.760;2023-07-20T00:04:39;101086.22;;;18.09;66.41
30516;BME280;17297;54.022;10.760;2023-07-20T00:07:04;101095.47;;;18.08;66.08
30516;BME280;17297;54.022;10.760;2023-07-20T00:09:30;101091.94;;;18.08;66.32
30516;BME280;17297;54.022;10.760;2023-07-20T00:11:56;101087.53;;;18.07;66.04
30516;BME280;17297;54.022;10.760;2023-07-20T00:14:21;101092.13;;;18.06;66.27
30516;BME280;17297;54.022;10.760;2023-07-20T00:16:49;101088.00;;;18.04;66.20
30516;BME280;17297;54.022;10.760;2023-07-20T00:19:27;101088.00;;;18.04;66.13
30516;BME280;17297;54.022;10.760;2023-07-20T00:21:53;101085.53;;;18.02;66.29
30516;BME280;17297;54.022;10.760;2023-07-20T00:24:19;101087.41;;;18.02;66.21
30516;BME280;17297;54.022;10.760;2023-07-20T00:26:44;101092.03;;;18.01;66.01
30516;BME280;17297;54.022;10.760;2023-07-20T00:29:10;101093.06;;;18.00;66.09
30516;BME280;17297;54.022;10.760;2023-07-20T00:31:35;101080.53;;;17.99;66.34
30516;BME280;17297;54.022;10.760;2023-07-20T00:34:02;101081.63;;;17.98;66.32
30516;BME280;17297;54.022;10.760;2023-07-20T00:36:28;101082.66;;;17.97;66.37
30516;BME280;17297;54.022;10.760;2023-07-20T00:38:53;101083.50;;;17.97;66.27
30516;BME280;17297;54.022;10.760;2023-07-20T00:41:19;101081.84;;;17.96;66.37
30516;BME280;17297;54.022;10.760;2023-07-20T00:43:44;101081.00;;;17.96;66.17
30516;BME280;17297;54.022;10.760;2023-07-20T00:46:10;101078.53;;;17.94;66.22
30516;BME280;17297;54.022;10.760;2023-07-20T00:48:36;101074.97;;;17.94;66.40
30516;BME280;17297;54.022;10.760;2023-07-20T00:51:02;101076.84;;;17.93;66.27
30516;BME280;17297;54.022;10.760;2023-07-20T00:53:27;101081.47;;;17.93;66.17
30516;BME280;17297;54.022;10.760;2023-07-20T00:55:53;101077.94;;;17.92;66.11
30516;BME280;17297;54.022;10.760;2023-07-20T00:58:19;101079.81;;;17.92;66.21
30516;BME280;17297;54.022;10.760;2023-07-20T01:00:45;101075.69;;;17.89;66.01
30516;BME280;17297;54.022;10.760;2023-07-20T01:03:10;101079.47;;;17.88;66.05
30516;BME280;17297;54.022;10.760;2023-07-20T01:05:44;101076.97;;;17.87;66.40
30516;BME280;17297;54.022;10.760;2023-07-20T01:11:23;101073.63;;;17.85;66.39
30516;BME280;17297;54.022;10.760;2023-07-20T01:13:53;101083.69;;;17.84;66.27
30516;BME280;17297;54.022;10.760;2023-07-20T01:16:19;101082.06;;;17.83;66.29
30516;BME280;17297;54.022;10.760;2023-07-20T01:18:44;101078.50;;;17.83;66.11
30516;BME280;17297;54.022;10.760;2023-07-20T01:21:13;101084.78;;;17.83;66.38
30516;BME280;17297;54.022;10.760;2023-07-20T01:24:10;101080.41;;;17.82;66.41
30516;BME280;17297;54.022;10.760;2023-07-20T01:30:00;101084.16;;;17.81;66.48
30516;BME280;17297;54.022;10.760;2023-07-20T01:32:31;101082.50;;;17.80;66.21
30516;BME280;17297;54.022;10.760;2023-07-20T01:34:58;101086.88;;;17.81;66.27
30516;BME280;17297;54.022;10.760;2023-07-20T01:37:25;101085.25;;;17.80;66.30
30516;BME280;17297;54.022;10.760;2023-07-20T01:39:55;101086.88;;;17.81;66.42
30516;BME280;17297;54.022;10.760;2023-07-20T01:42:24;101084.16;;;17.81;66.42
30516;BME280;17297;54.022;10.760;2023-07-20T01:44:53;101079.53;;;17.82;66.43
30516;BME280;17297;54.022;10.760;2023-07-20T01:47:19;101081.22;;;17.83;66.62
30516;BME280;17297;54.022;10.760;2023-07-20T01:49:44;101085.00;;;17.82;66.62
30516;BME280;17297;54.022;10.760;2023-07-20T01:52:10;101096.72;;;17.82;66.53
30516;BME280;17297;54.022;10.760;2023-07-20T01:54:35;101085.84;;;17.82;66.32
30516;BME280;17297;54.022;10.760;2023-07-20T01:57:01;101092.94;;;17.83;66.43
30516;BME280;17297;54.022;10.760;2023-07-20T01:59:26;101092.94;;;17.83;66.43
30516;BME280;17297;54.022;10.760;2023-07-20T02:01:52;101096.47;;;17.84;66.41
30516;BME280;17297;54.022;10.760;2023-07-20T02:04:17;101088.31;;;17.84;66.56
30516;BME280;17297;54.022;10.760;2023-07-20T02:06:43;101082.06;;;17.83;66.51
30516;BME280;17297;54.022;10.760;2023-07-20T02:09:10;101081.22;;;17.83;66.39
30516;BME280;17297;54.022;10.760;2023-07-20T02:11:35;101090.22;;;17.83;66.56
30516;BME280;17297;54.022;10.760;2023-07-20T02:14:00;101091.03;;;17.84;66.68
30516;BME280;17297;54.022;10.760;2023-07-20T02:16:26;101088.56;;;17.82;66.55
30516;BME280;17297;54.022;10.760;2023-07-20T02:18:52;101092.09;;;17.83;66.66
30516;BME280;17297;54.022;10.760;2023-07-20T02:21:18;101093.75;;;17.84;66.83
30516;BME280;17297;54.022;10.760;2023-07-20T02:23:43;101088.56;;;17.82;66.57
30516;BME280;17297;54.022;10.760;2023-07-20T02:26:08;101094.00;;;17.82;66.76
30516;BME280;17297;54.022;10.760;2023-07-20T02:28:34;101083.13;;;17.82;66.68
30516;BME280;17297;54.022;10.760;2023-07-20T02:30:59;101085.84;;;17.82;66.83
30516;BME280;17297;54.022;10.760;2023-07-20T02:33:25;101090.44;;;17.82;66.83
30516;BME280;17297;54.022;10.760;2023-07-20T02:35:51;101092.31;;;17.81;66.84
30516;BME280;17297;54.022;10.760;2023-07-20T02:38:17;101095.06;;;17.81;66.72
30516;BME280;17297;54.022;10.760;2023-07-20T02:40:42;101094.22;;;17.81;66.93
30516;BME280;17297;54.022;10.760;2023-07-20T02:43:08;101097.78;;;17.81;66.86
30516;BME280;17297;54.022;10.760;2023-07-20T02:45:35;101092.31;;;17.81;66.71
30516;BME280;17297;54.022;10.760;2023-07-20T02:48:00;101086.06;;;17.81;67.05
30516;BME280;17297;54.022;10.760;2023-07-20T02:50:26;101092.31;;;17.81;66.96
30516;BME280;17297;54.022;10.760;2023-07-20T02:52:51;101087.72;;;17.82;66.72
30516;BME280;17297;54.022;10.760;2023-07-20T02:55:16;101090.44;;;17.82;66.98
30516;BME280;17297;54.022;10.760;2023-07-20T02:57:42;101089.59;;;17.81;66.92
30516;BME280;17297;54.022;10.760;2023-07-20T03:00:08;101090.69;;;17.80;66.87
30516;BME280;17297;54.022;10.760;2023-07-20T03:02:33;101086.88;;;17.81;66.78
30516;BME280;17297;54.022;10.760;2023-07-20T03:04:58;101089.59;;;17.81;66.87
30516;BME280;17297;54.022;10.760;2023-07-20T03:07:27;101085.25;;;17.80;66.82
30516;BME280;17297;54.022;10.760;2023-07-20T03:09:54;101086.31;;;17.79;66.93
30516;BME280;17297;54.022;10.760;2023-07-20T03:12:20;101089.84;;;17.80;67.02
30516;BME280;17297;54.022;10.760;2023-07-20T03:14:46;101090.91;;;17.78;66.81
30516;BME280;17297;54.022;10.760;2023-07-20T03:17:11;101092.56;;;17.80;66.81
30516;BME280;17297;54.022;10.760;2023-07-20T03:19:36;101101.56;;;17.80;66.86
30516;BME280;17297;54.022;10.760;2023-07-20T03:22:02;101101.56;;;17.80;66.96
30516;BME280;17297;54.022;10.760;2023-07-20T03:24:27;101105.09;;;17.81;66.91
30516;BME280;17297;54.022;10.760;2023-07-20T03:26:53;101102.38;;;17.81;66.90
30516;BME280;17297;54.022;10.760;2023-07-20T03:29:18;101099.66;;;17.81;67.11
30516;BME280;17297;54.022;10.760;2023-07-20T03:31:45;101100.28;;;17.83;67.18
30516;BME280;17297;54.022;10.760;2023-07-20T03:34:10;101101.09;;;17.83;67.12
30516;BME280;17297;54.022;10.760;2023-07-20T03:36:36;101103.81;;;17.83;67.09
30516;BME280;17297;54.022;10.760;2023-07-20T03:39:02;101096.72;;;17.82;66.92
30516;BME280;17297;54.022;10.760;2023-07-20T03:41:28;101098.38;;;17.83;67.13
30516;BME280;17297;54.022;10.760;2023-07-20T03:43:53;101097.56;;;17.83;67.12
30516;BME280;17297;54.022;10.760;2023-07-20T03:46:19;101110.09;;;17.84;67.17
30516;BME280;17297;54.022;10.760;2023-07-20T03:48:44;101109.88;;;17.85;67.00
30516;BME280;17297;54.022;10.760;2023-07-20T03:51:09;101106.28;;;17.85;66.98
30516;BME280;17297;54.022;10.760;2023-07-20T03:53:35;101105.47;;;17.84;66.92
30516;BME280;17297;54.022;10.760;2023-07-20T03:56:00;101109.00;;;17.85;67.04
30516;BME280;17297;54.022;10.760;2023-07-20T03:58:26;101113.41;;;17.86;67.00
30516;BME280;17297;54.022;10.760;2023-07-20T04:00:51;101110.69;;;17.86;67.13
30516;BME280;17297;54.022;10.760;2023-07-20T04:03:18;101116.13;;;17.86;67.05
30516;BME280;17297;54.022;10.760;2023-07-20T04:05:44;101105.25;;;17.86;67.11
30516;BME280;17297;54.022;10.760;2023-07-20T04:08:10;101106.06;;;17.86;67.06
30516;BME280;17297;54.022;10.760;2023-07-20T04:10:36;101102.28;;;17.87;67.30
30516;BME280;17297;54.022;10.760;2023-07-20T04:13:03;101103.97;;;17.88;67.11
30516;BME280;17297;54.022;10.760;2023-07-20T04:15:28;101106.69;;;17.88;67.11
30516;BME280;17297;54.022;10.760;2023-07-20T04:17:53;101102.06;;;17.89;67.23
30516;BME280;17297;54.022;10.760;2023-07-20T04:20:22;101106.78;;;17.93;67.20
30516;BME280;17297;54.022;10.760;2023-07-20T04:22:47;101098.16;;;17.96;67.39
30516;BME280;17297;54.022;10.760;2023-07-20T04:25:14;101108.38;;;18.01;67.02
30516;BME280;17297;54.022;10.760;2023-07-20T04:27:39;101117.25;;;18.08;67.07
30516;BME280;17297;54.022;10.760;2023-07-20T04:30:10;101104.00;;;18.12;67.06
30516;BME280;17297;54.022;10.760;2023-07-20T04:32:38;101107.44;;;18.19;67.11
30516;BME280;17297;54.022;10.760;2023-07-20T04:35:06;101116.34;;;18.26;67.03
30516;BME280;17297;54.022;10.760;2023-07-20T04:37:40;101111.84;;;18.32;66.94
30516;BME280;17297;54.022;10.760;2023-07-20T04:40:15;101111.72;;;18.38;66.92
30516;BME280;17297;54.022;10.760;2023-07-20T04:42:40;101112.91;;;18.42;66.73
30516;BME280;17297;54.022;10.760;2023-07-20T04:45:06;101117.88;;;18.45;66.56
30516;BME280;17297;54.022;10.760;2023-07-20T04:47:32;101123.47;;;18.51;66.73
30516;BME280;17297;54.022;10.760;2023-07-20T04:49:57;101116.47;;;18.55;66.40
30516;BME280;17297;54.022;10.760;2023-07-20T04:52:23;101118.47;;;18.59;66.24
30516;BME280;17297;54.022;10.760;2023-07-20T04:54:50;101117.78;;;18.64;66.29
30516;BME280;17297;54.022;10.760;2023-07-20T04:57:15;101106.97;;;18.69;66.48
30516;BME280;17297;54.022;10.760;2023-07-20T04:59:46;101115.66;;;18.78;66.27
30516;BME280;17297;54.022;10.760;2023-07-20T05:02:12;101112.31;;;18.87;66.21
30516;BME280;17297;54.022;10.760;2023-07-20T05:04:37;101122.88;;;18.96;66.27
30516;BME280;17297;54.022;10.760;2023-07-20T05:07:03;101122.97;;;19.01;66.02
30516;BME280;17297;54.022;10.760;2023-07-20T05:09:28;101125.44;;;19.02;65.83
30516;BME280;17297;54.022;10.760;2023-07-20T05:11:53;101121.66;;;19.03;65.74
30516;BME280;17297;54.022;10.760;2023-07-20T05:14:19;101117.28;;;19.02;65.50
30516;BME280;17297;54.022;10.760;2023-07-20T05:16:45;101113.94;;;19.00;65.59
30516;BME280;17297;54.022;10.760;2023-07-20T05:19:11;101121.09;;;19.01;65.81
30516;BME280;17297;54.022;10.760;2023-07-20T05:21:36;101118.81;;;19.10;65.56
30516;BME280;17297;54.022;10.760;2023-07-20T05:24:02;101112.63;;;19.14;65.28
30516;BME280;17297;54.022;10.760;2023-07-20T05:26:27;101115.00;;;19.23;65.25
30516;BME280;17297;54.022;10.760;2023-07-20T05:28:53;101110.31;;;19.75;66.00
30516;BME280;17297;54.022;10.760;2023-07-20T05:31:18;101106.84;;;20.30;65.58
30516;BME280;17297;54.022;10.760;2023-07-20T05:33:43;101114.13;;;20.75;64.90
30516;BME280;17297;54.022;10.760;2023-07-20T05:36:09;101108.81;;;21.30;64.49
30516;BME280;17297;54.022;10.760;2023-07-20T05:38:34;101107.53;;;21.59;63.56
30516;BME280;17297;54.022;10.760;2023-07-20T05:41:00;101113.06;;;21.64;62.81
30516;BME280;17297;54.022;10.760;2023-07-20T05:43:29;101113.84;;;21.60;62.33
30516;BME280;17297;54.022;10.760;2023-07-20T05:45:54;101110.53;;;21.58;62.39
30516;BME280;17297;54.022;10.760;2023-07-20T05:48:19;101111.09;;;21.60;61.93
30516;BME280;17297;54.022;10.760;2023-07-20T05:50:45;101114.88;;;21.54;61.53
30516;BME280;17297;54.022;10.760;2023-07-20T05:53:10;101118.31;;;21.44;61.88
30516;BME280;17297;54.022;10.760;2023-07-20T05:55:35;101111.31;;;21.31;61.59
30516;BME280;17297;54.022;10.760;2023-07-20T05:58:01;101109.19;;;21.16;61.23
30516;BME280;17297;54.022;10.760;2023-07-20T06:00:26;101110.16;;;21.05;61.30
30516;BME280;17297;54.022;10.760;2023-07-20T06:02:55;101112.44;;;20.91;61.34
30516;BME280;17297;54.022;10.760;2023-07-20T06:05:21;101120.75;;;20.80;61.20
30516;BME280;17297;54.022;10.760;2023-07-20T06:07:47;101116.19;;;20.68;61.38
30516;BME280;17297;54.022;10.760;2023-07-20T06:10:12;101114.16;;;20.59;61.28
30516;BME280;17297;54.022;10.760;2023-07-20T06:12:37;101111.25;;;20.48;61.29
30516;BME280;17297;54.022;10.760;2023-07-20T06:15:04;101116.28;;;20.40;61.69
30516;BME280;17297;54.022;10.760;2023-07-20T06:17:30;101106.84;;;20.30;61.41
30516;BME280;17297;54.022;10.760;2023-07-20T06:19:55;101115.81;;;20.26;61.43
30516;BME280;17297;54.022;10.760;2023-07-20T06:22:21;101114.91;;;20.20;61.70
30516;BME280;17297;54.022;10.760;2023-07-20T06:24:46;101120.25;;;20.15;61.64
30516;BME280;17297;54.022;10.760;2023-07-20T06:27:11;101114.72;;;20.10;61.56
30516;BME280;17297;54.022;10.760;2023-07-20T06:29:37;101113.81;;;20.04;61.39
30516;BME280;17297;54.022;10.760;2023-07-20T06:32:03;101117.84;;;20.02;61.34
30516;BME280;17297;54.022;10.760;2023-07-20T06:34:28;101112.41;;;20.02;61.36
30516;BME280;17297;54.022;10.760;2023-07-20T06:36:55;101118.94;;;20.01;61.44
30516;BME280;17297;54.022;10.760;2023-07-20T06:39:20;101110.50;;;20.02;61.33
30516;BME280;17297;54.022;10.760;2023-07-20T06:41:46;101118.03;;;20.12;61.52
30516;BME280;17297;54.022;10.760;2023-07-20T06:44:12;101114.91;;;20.20;61.21
30516;BME280;17297;54.022;10.760;2023-07-20T06:46:37;101107.34;;;20.27;61.53
30516;BME280;17297;54.022;10.760;2023-07-20T06:49:06;101115.47;;;20.39;61.02
30516;BME280;17297;54.022;10.760;2023-07-20T06:51:31;101119.13;;;20.62;61.04
30516;BME280;17297;54.022;10.760;2023-07-20T06:53:56;101123.25;;;20.81;60.78
30516;BME280;17297;54.022;10.760;2023-07-20T06:56:22;101113.84;;;21.16;60.64
30516;BME280;17297;54.022;10.760;2023-07-20T06:58:47;101116.19;;;21.51;60.01
30516;BME280;17297;54.022;10.760;2023-07-20T07:01:13;101112.16;;;21.81;59.38
30516;BME280;17297;54.022;10.760;2023-07-20T07:03:38;101111.19;;;21.97;58.67
30516;BME280;17297;54.022;10.760;2023-07-20T07:06:04;101113.19;;;22.07;58.18
30516;BME280;17297;54.022;10.760;2023-07-20T07:08:29;101114.69;;;22.20;57.94
30516;BME280;17297;54.022;10.760;2023-07-20T07:10:54;101118.97;;;22.43;57.45
30516;BME280;17297;54.022;10.760;2023-07-20T07:13:20;101110.31;;;22.56;57.25
30516;BME280;17297;54.022;10.760;2023-07-20T07:15:45;101111.13;;;22.56;56.89
30516;BME280;17297;54.022;10.760;2023-07-20T07:18:11;101111.59;;;22.43;56.78
30516;BME280;17297;54.022;10.760;2023-07-20T07:20:37;101112.31;;;22.28;57.02
30516;BME280;17297;54.022;10.760;2023-07-20T07:23:02;101108.97;;;22.21;56.66
30516;BME280;17297;54.022;10.760;2023-07-20T07:25:27;101111.06;;;22.14;56.81
30516;BME280;17297;54.022;10.760;2023-07-20T07:27:53;101112.06;;;22.03;56.91
30516;BME280;17297;54.022;10.760;2023-07-20T07:30:20;101111.72;;;21.94;57.18
30516;BME280;17297;54.022;10.760;2023-07-20T07:32:45;101107.28;;;21.93;56.98
30516;BME280;17297;54.022;10.760;2023-07-20T07:35:10;101114.44;;;21.94;56.76
30516;BME280;17297;54.022;10.760;2023-07-20T07:37:36;101111.19;;;21.97;56.77
30516;BME280;17297;54.022;10.760;2023-07-20T07:40:03;101110.41;;;22.02;56.69
30516;BME280;17297;54.022;10.760;2023-07-20T07:42:29;101112.06;;;22.03;56.58
30516;BME280;17297;54.022;10.760;2023-07-20T07:44:54;101115.63;;;22.03;56.63
30516;BME280;17297;54.022;10.760;2023-07-20T07:47:19;101108.47;;;22.02;56.35
30516;BME280;17297;54.022;10.760;2023-07-20T07:49:45;101119.94;;;21.94;56.60
30516;BME280;17297;54.022;10.760;2023-07-20T07:52:10;101119.31;;;21.87;56.60
30516;BME280;17297;54.022;10.760;2023-07-20T07:54:35;101117.09;;;21.84;56.41
30516;BME280;17297;54.022;10.760;2023-07-20T07:57:01;101111.94;;;21.87;56.59
30516;BME280;17297;54.022;10.760;2023-07-20T07:59:26;101124.00;;;21.91;56.26
30516;BME280;17297;54.022;10.760;2023-07-20T08:01:52;101112.25;;;21.96;56.15
30516;BME280;17297;54.022;10.760;2023-07-20T08:04:17;101116.09;;;21.95;56.17
30516;BME280;17297;54.022;10.760;2023-07-20T08:06:42;101109.19;;;21.87;55.81
30516;BME280;17297;54.022;10.760;2023-07-20T08:09:08;101118.69;;;21.80;55.41
30516;BME280;17297;54.022;10.760;2023-07-20T08:11:33;101115.41;;;21.78;55.69
30516;BME280;17297;54.022;10.760;2023-07-20T08:14:00;101113.47;;;21.78;55.66
30516;BME280;17297;54.022;10.760;2023-07-20T08:16:25;101110.44;;;21.75;55.70
30516;BME280;17297;54.022;10.760;2023-07-20T08:18:51;101119.69;;;21.68;55.34
30516;BME280;17297;54.022;10.760;2023-07-20T08:21:16;101112.22;;;21.64;55.46
30516;BME280;17297;54.022;10.760;2023-07-20T08:23:42;101108.41;;;21.65;55.08
30516;BME280;17297;54.022;10.760;2023-07-20T08:26:07;101103.56;;;21.72;55.42
30516;BME280;17297;54.022;10.760;2023-07-20T08:28:34;101107.69;;;21.75;55.20
30516;BME280;17297;54.022;10.760;2023-07-20T08:30:59;101103.59;;;21.77;54.80
30516;BME280;17297;54.022;10.760;2023-07-20T08:33:24;101107.50;;;21.81;55.06
30516;BME280;17297;54.022;10.760;2023-07-20T08:35:50;101109.13;;;21.82;54.92
30516;BME280;17297;54.022;10.760;2023-07-20T08:38:15;101106.16;;;21.84;54.43
30516;BME280;17297;54.022;10.760;2023-07-20T08:40:45;101102.56;;;21.83;54.60
30516;BME280;17297;54.022;10.760;2023-07-20T08:43:11;101103.41;;;21.84;54.13
30516;BME280;17297;54.022;10.760;2023-07-20T08:45:39;101117.63;;;21.81;54.19
30516;BME280;17297;54.022;10.760;2023-07-20T08:48:06;101113.72;;;21.77;54.06
30516;BME280;17297;54.022;10.760;2023-07-20T08:50:32;101114.53;;;21.77;53.90
30516;BME280;17297;54.022;10.760;2023-07-20T08:52:59;101110.47;;;21.80;54.03
30516;BME280;17297;54.022;10.760;2023-07-20T08:55:27;101108.31;;;21.82;53.64
30516;BME280;17297;54.022;10.760;2023-07-20T08:57:54;101101.72;;;21.78;53.54
30516;BME280;17297;54.022;10.760;2023-07-20T09:00:21;101116.16;;;21.73;53.18
30516;BME280;17297;54.022;10.760;2023-07-20T09:02:49;101115.03;;;21.69;53.81
30516;BME280;17297;54.022;10.760;2023-07-20T09:05:16;101116.16;;;21.73;53.84
30516;BME280;17297;54.022;10.760;2023-07-20T09:07:41;101121.38;;;21.75;54.17
30516;BME280;17297;54.022;10.760;2023-07-20T09:10:07;101127.16;;;21.78;54.29
30516;BME280;17297;54.022;10.760;2023-07-20T09:12:40;101112.97;;;21.81;54.09
30516;BME280;17297;54.022;10.760;2023-07-20T09:15:06;101117.03;;;21.79;53.84
30516;BME280;17297;54.022;10.760;2023-07-20T09:17:32;101121.38;;;21.75;53.71
30516;BME280;17297;54.022;10.760;2023-07-20T09:19:58;101122.97;;;21.71;53.61
30516;BME280;17297;54.022;10.760;2023-07-20T09:22:30;101125.72;;;21.71;53.29
30516;BME280;17297;54.022;10.760;2023-07-20T09:24:56;101119.16;;;21.72;53.52
30516;BME280;17297;54.022;10.760;2023-07-20T09:27:22;101119.41;;;21.70;53.38
30516;BME280;17297;54.022;10.760;2023-07-20T09:29:54;101132.78;;;21.66;52.91
30516;BME280;17297;54.022;10.760;2023-07-20T09:32:21;101142.03;;;21.60;53.31
30516;BME280;17297;54.022;10.760;2023-07-20T09:34:47;101146.06;;;21.53;53.53
30516;BME280;17297;54.022;10.760;2023-07-20T09:37:22;101146.50;;;21.44;53.94
30516;BME280;17297;54.022;10.760;2023-07-20T09:39:47;101148.63;;;21.37;54.41
30516;BME280;17297;54.022;10.760;2023-07-20T09:42:15;101149.03;;;21.29;55.22
30516;BME280;17297;54.022;10.760;2023-07-20T09:44:42;101153.03;;;21.21;55.58
30516;BME280;17297;54.022;10.760;2023-07-20T09:47:08;101162.00;;;21.17;56.04
30516;BME280;17297;54.022;10.760;2023-07-20T09:49:39;101151.06;;;21.17;56.03
30516;BME280;17297;54.022;10.760;2023-07-20T09:52:04;101145.91;;;21.20;56.75
30516;BME280;17297;54.022;10.760;2023-07-20T09:54:31;101138.31;;;21.28;56.63
30516;BME280;17297;54.022;10.760;2023-07-20T09:56:57;101138.16;;;21.34;56.76
30516;BME280;17297;54.022;10.760;2023-07-20T09:59:22;101135.50;;;21.39;56.46
30516;BME280;17297;54.022;10.760;2023-07-20T10:01:49;101133.41;;;21.47;56.43
30516;BME280;17297;54.022;10.760;2023-07-20T10:04:16;101133.97;;;21.49;56.32
30516;BME280;17297;54.022;10.760;2023-07-20T10:06:43;101145.19;;;21.47;55.88
30516;BME280;17297;54.022;10.760;2023-07-20T10:09:12;101156.06;;;21.42;56.00
30516;BME280;17297;54.022;10.760;2023-07-20T10:11:46;101150.97;;;21.34;55.59
30516;BME280;17297;54.022;10.760;2023-07-20T10:14:17;101142.66;;;21.23;55.63
30516;BME280;17297;54.022;10.760;2023-07-20T10:16:51;101148.00;;;21.13;55.74
30516;BME280;17297;54.022;10.760;2023-07-20T10:19:23;101144.63;;;21.06;55.82
30516;BME280;17297;54.022;10.760;2023-07-20T10:24:37;101147.53;;;20.99;56.41
30516;BME280;17297;54.022;10.760;2023-07-20T10:27:04;101140.72;;;21.02;56.49
30516;BME280;17297;54.022;10.760;2023-07-20T10:29:30;101142.47;;;21.08;56.76
30516;BME280;17297;54.022;10.760;2023-07-20T10:31:57;101135.72;;;21.16;56.93
30516;BME280;17297;54.022;10.760;2023-07-20T10:34:23;101132.03;;;21.27;56.76
30516;BME280;17297;54.022;10.760;2023-07-20T10:36:49;101131.63;;;21.35;56.33
30516;BME280;17297;54.022;10.760;2023-07-20T10:39:46;101122.47;;;21.47;56.26
30516;BME280;17297;54.022;10.760;2023-07-20T10:42:12;101132.69;;;21.56;55.99
30516;BME280;17297;54.022;10.760;2023-07-20T10:44:38;101129.16;;;21.61;55.94
30516;BME280;17297;54.022;10.760;2023-07-20T10:47:09;101126.75;;;21.64;55.88
30516;BME280;17297;54.022;10.760;2023-07-20T10:49:35;101119.69;;;21.68;55.64
30516;BME280;17297;54.022;10.760;2023-07-20T10:52:04;101127.94;;;21.74;55.68
30516;BME280;17297;54.022;10.760;2023-07-20T10:57:22;101118.75;;;21.85;55.52
30516;BME280;17297;54.022;10.760;2023-07-20T10:59:47;101120.16;;;21.92;54.78
30516;BME280;17297;54.022;10.760;2023-07-20T11:02:13;101117.50;;;21.98;55.08
30516;BME280;17297;54.022;10.760;2023-07-20T11:04:46;101115.34;;;22.05;54.59
30516;BME280;17297;54.022;10.760;2023-07-20T11:07:16;101123.56;;;22.05;54.64
30516;BME280;17297;54.022;10.760;2023-07-20T11:09:42;101129.56;;;22.02;54.57
30516;BME280;17297;54.022;10.760;2023-07-20T11:12:15;101127.63;;;21.97;54.57
30516;BME280;17297;54.022;10.760;2023-07-20T11:14:42;101136.88;;;21.91;54.23
30516;BME280;17297;54.022;10.760;2023-07-20T11:17:13;101146.66;;;21.82;54.46
30516;BME280;17297;54.022;10.760;2023-07-20T11:19:39;101151.75;;;21.73;54.48
30516;BME280;17297;54.022;10.760;2023-07-20T11:22:05;101158.19;;;21.62;54.66
30516;BME280;17297;54.022;10.760;2023-07-20T11:24:33;101164.66;;;21.51;54.86
30516;BME280;17297;54.022;10.760;2023-07-20T11:26:59;101160.44;;;21.43;55.08
30516;BME280;17297;54.022;10.760;2023-07-20T11:29:26;101158.19;;;21.40;55.28
30516;BME280;17297;54.022;10.760;2023-07-20T11:31:51;101156.88;;;21.42;55.95
30516;BME280;17297;54.022;10.760;2023-07-20T11:34:19;101155.53;;;21.45;55.89
30516;BME280;17297;54.022;10.760;2023-07-20T11:36:46;101145.72;;;21.49;55.83
30516;BME280;17297;54.022;10.760;2023-07-20T11:39:19;101142.25;;;21.54;55.93
30516;BME280;17297;54.022;10.760;2023-07-20T11:41:50;101141.44;;;21.58;56.27
30516;BME280;17297;54.022;10.760;2023-07-20T11:44:20;101149.97;;;21.62;56.31
30516;BME280;17297;54.022;10.760;2023-07-20T11:46:59;101158.53;;;21.65;55.30
30516;BME280;17297;54.022;10.760;2023-07-20T11:49:24;101158.25;;;21.67;55.11
30516;BME280;17297;54.022;10.760;2023-07-20T11:51:50;101160.69;;;21.63;54.36
30516;BME280;17297;54.022;10.760;2023-07-20T11:54:15;101162.84;;;21.61;54.21
30516;BME280;17297;54.022;10.760;2023-07-20T11:56:41;101163.94;;;21.60;54.04
30516;BME280;17297;54.022;10.760;2023-07-20T11:59:07;101166.66;;;21.60;53.73
30516;BME280;17297;54.022;10.760;2023-07-20T12:01:33;101157.13;;;21.63;53.80
30516;BME280;17297;54.022;10.760;2023-07-20T12:04:03;101167.88;;;21.70;53.86
30516;BME280;17297;54.022;10.760;2023-07-20T12:06:29;101168.19;;;21.73;53.48
30516;BME280;17297;54.022;10.760;2023-07-20T12:08:56;101170.41;;;21.76;53.62
30516;BME280;17297;54.022;10.760;2023-07-20T12:11:39;101170.41;;;21.76;53.93
30516;BME280;17297;54.022;10.760;2023-07-20T12:14:08;101170.66;;;21.75;53.73
30516;BME280;17297;54.022;10.760;2023-07-20T12:16:35;101173.66;;;21.73;53.81
30516;BME280;17297;54.022;10.760;2023-07-20T12:19:11;101168.69;;;21.70;54.29
30516;BME280;17297;54.022;10.760;2023-07-20T12:21:38;101168.97;;;21.68;54.23
30516;BME280;17297;54.022;10.760;2023-07-20T12:24:06;101171.13;;;21.66;54.15
30516;BME280;17297;54.022;10.760;2023-07-20T12:26:32;101169.72;;;21.64;54.42
30516;BME280;17297;54.022;10.760;2023-07-20T12:28:58;101161.78;;;21.62;53.84
30516;BME280;17297;54.022;10.760;2023-07-20T12:31:25;101164.00;;;21.65;54.05
30516;BME280;17297;54.022;10.760;2023-07-20T12:33:51;101154.75;;;21.72;54.30
30516;BME280;17297;54.022;10.760;2023-07-20T12:36:17;101153.47;;;21.79;53.54
30516;BME280;17297;54.022;10.760;2023-07-20T12:38:43;101158.47;;;21.87;53.95
30516;BME280;17297;54.022;10.760;2023-07-20T12:41:10;101158.50;;;21.92;53.76
30516;BME280;17297;54.022;10.760;2023-07-20T12:43:37;101164.06;;;21.98;53.16
30516;BME280;17297;54.022;10.760;2023-07-20T12:46:03;101153.69;;;22.00;53.25
30516;BME280;17297;54.022;10.760;2023-07-20T12:48:28;101157.47;;;21.99;53.28
30516;BME280;17297;54.022;10.760;2023-07-20T12:50:53;101154.50;;;22.00;53.16